sensor_id;sensor_type;location;lat;lon;timestamp;P1;durP1;ratioP1;P2;durP2;ratioP2
52320;SDS011;38261;54.090;13.382;2023-04-24T00:00:42;15.43;;;10.37;;
52320;SDS011;38261;54.090;13.382;2023-04-24T00:02:06;17.00;;;11.00;;
52320;SDS011;38261;54.090;13.382;2023-04-24T00:03:30;19.40;;;10.37;;
52320;SDS011;38261;54.090;13.382;2023-04-24T00:04:54;16.63;;;10.90;;
52320;SDS011;38261;54.090;13.382;2023-04-24T00:06:16;15.33;;;10.93;;
52320;SDS011;38261;54.090;13.382;2023-04-24T00:07:39;16.47;;;11.13;;
52320;SDS011;38261;54.090;13.382;2023-04-24T00:09:01;18.07;;;10.90;;
52320;SDS011;38261;54.090;13.382;2023-04-24T00:10:27;16.13;;;10.40;;
52320;SDS011;38261;54.090;13.382;2023-04-24T00:11:49;14.93;;;10.07;;
52320;SDS011;38261;54.090;13.382;2023-04-24T00:13:11;16.73;;;10.67;;
52320;SDS011;38261;54.090;13.382;2023-04-24T00:14:33;17.13;;;10.20;;
52320;SDS011;38261;54.090;13.382;2023-04-24T00:15:56;15.80;;;10.70;;
52320;SDS011;38261;54.090;13.382;2023-04-24T00:17:18;16.10;;;10.63;;
52320;SDS011;38261;54.090;13.382;2023-04-24T00:18:43;18.73;;;12.00;;
52320;SDS011;38261;54.090;13.382;2023-04-24T00:20:06;18.93;;;10.43;;
52320;SDS011;38261;54.090;13.382;2023-04-24T00:21:28;18.20;;;10.97;;
52320;SDS011;38261;54.090;13.382;2023-04-24T00:22:51;23.63;;;12.70;;
52320;SDS011;38261;54.090;13.382;2023-04-24T00:24:13;17.47;;;12.17;;
52320;SDS011;38261;54.090;13.382;2023-04-24T00:25:35;15.47;;;10.33;;
52320;SDS011;38261;54.090;13.382;2023-04-24T00:26:57;17.50;;;11.30;;
52320;SDS011;38261;54.090;13.382;2023-04-24T00:28:19;18.77;;;11.10;;
52320;SDS011;38261;54.090;13.382;2023-04-24T00:29:41;18.90;;;11.40;;
52320;SDS011;38261;54.090;13.382;2023-04-24T00:31:04;17.87;;;11.40;;
52320;SDS011;38261;54.090;13.382;2023-04-24T00:32:26;16.43;;;11.60;;
52320;SDS011;38261;54.090;13.382;2023-04-24T00:33:48;17.27;;;10.87;;
52320;SDS011;38261;54.090;13.382;2023-04-24T00:35:10;18.27;;;11.90;;
52320;SDS011;38261;54.090;13.382;2023-04-24T00:36:32;19.20;;;11.67;;
52320;SDS011;38261;54.090;13.382;2023-04-24T00:37:54;18.87;;;12.47;;
52320;SDS011;38261;54.090;13.382;2023-04-24T00:39:17;17.50;;;11.27;;
52320;SDS011;38261;54.090;13.382;2023-04-24T00:40:39;17.90;;;11.77;;
52320;SDS011;38261;54.090;13.382;2023-04-24T00:42:01;20.83;;;11.97;;
52320;SDS011;38261;54.090;13.382;2023-04-24T00:43:24;20.67;;;12.27;;
52320;SDS011;38261;54.090;13.382;2023-04-24T00:44:46;19.90;;;11.23;;
52320;SDS011;38261;54.090;13.382;2023-04-24T00:46:08;16.00;;;10.40;;
52320;SDS011;38261;54.090;13.382;2023-04-24T00:47:31;16.50;;;10.63;;
52320;SDS011;38261;54.090;13.382;2023-04-24T00:48:55;16.07;;;11.17;;
52320;SDS011;38261;54.090;13.382;2023-04-24T00:50:18;17.50;;;11.23;;
52320;SDS011;38261;54.090;13.382;2023-04-24T00:51:41;17.70;;;11.30;;
52320;SDS011;38261;54.090;13.382;2023-04-24T00:53:06;18.60;;;11.27;;
52320;SDS011;38261;54.090;13.382;2023-04-24T00:54:29;18.53;;;11.60;;
52320;SDS011;38261;54.090;13.382;2023-04-24T00:55:51;15.40;;;10.17;;
52320;SDS011;38261;54.090;13.382;2023-04-24T00:57:13;25.30;;;11.67;;
52320;SDS011;38261;54.090;13.382;2023-04-24T00:58:36;16.10;;;10.90;;
52320;SDS011;38261;54.090;13.382;2023-04-24T00:59:59;18.00;;;10.80;;
52320;SDS011;38261;54.090;13.382;2023-04-24T01:01:21;15.47;;;11.07;;
52320;SDS011;38261;54.090;13.382;2023-04-24T01:02:44;18.90;;;12.00;;
52320;SDS011;38261;54.090;13.382;2023-04-24T01:04:07;16.50;;;10.67;;
52320;SDS011;38261;54.090;13.382;2023-04-24T01:05:31;20.70;;;10.10;;
52320;SDS011;38261;54.090;13.382;2023-04-24T01:06:54;16.37;;;11.03;;
52320;SDS011;38261;54.090;13.382;2023-04-24T01:08:17;20.13;;;11.57;;
52320;SDS011;38261;54.090;13.382;2023-04-24T01:09:40;14.83;;;9.73;;
52320;SDS011;38261;54.090;13.382;2023-04-24T01:11:05;18.73;;;11.30;;
52320;SDS011;38261;54.090;13.382;2023-04-24T01:12:27;16.80;;;11.00;;
52320;SDS011;38261;54.090;13.382;2023-04-24T01:13:49;13.67;;;9.40;;
52320;SDS011;38261;54.090;13.382;2023-04-24T01:15:12;13.77;;;9.67;;
52320;SDS011;38261;54.090;13.382;2023-04-24T01:16:34;17.60;;;10.63;;
52320;SDS011;38261;54.090;13.382;2023-04-24T01:17:57;16.10;;;11.03;;
52320;SDS011;38261;54.090;13.382;2023-04-24T01:19:19;15.03;;;10.30;;
52320;SDS011;38261;54.090;13.382;2023-04-24T01:20:41;16.80;;;10.60;;
52320;SDS011;38261;54.090;13.382;2023-04-24T01:22:10;15.37;;;10.57;;
52320;SDS011;38261;54.090;13.382;2023-04-24T01:23:34;15.73;;;10.30;;
52320;SDS011;38261;54.090;13.382;2023-04-24T01:24:56;14.70;;;10.17;;
52320;SDS011;38261;54.090;13.382;2023-04-24T01:26:18;15.60;;;10.30;;
52320;SDS011;38261;54.090;13.382;2023-04-24T01:27:41;16.97;;;9.97;;
52320;SDS011;38261;54.090;13.382;2023-04-24T01:29:03;17.90;;;10.97;;
52320;SDS011;38261;54.090;13.382;2023-04-24T01:30:26;18.90;;;10.03;;
52320;SDS011;38261;54.090;13.382;2023-04-24T01:31:48;16.03;;;10.00;;
52320;SDS011;38261;54.090;13.382;2023-04-24T01:33:11;17.23;;;11.40;;
52320;SDS011;38261;54.090;13.382;2023-04-24T01:34:33;18.43;;;11.13;;
52320;SDS011;38261;54.090;13.382;2023-04-24T01:35:55;16.67;;;11.13;;
52320;SDS011;38261;54.090;13.382;2023-04-24T01:37:18;22.10;;;10.53;;
52320;SDS011;38261;54.090;13.382;2023-04-24T01:38:40;16.52;;;10.93;;
52320;SDS011;38261;54.090;13.382;2023-04-24T01:40:04;15.90;;;11.23;;
52320;SDS011;38261;54.090;13.382;2023-04-24T01:41:29;16.60;;;11.43;;
52320;SDS011;38261;54.090;13.382;2023-04-24T01:42:51;16.83;;;10.63;;
52320;SDS011;38261;54.090;13.382;2023-04-24T01:44:14;15.63;;;10.70;;
52320;SDS011;38261;54.090;13.382;2023-04-24T01:45:36;18.20;;;11.63;;
52320;SDS011;38261;54.090;13.382;2023-04-24T01:46:59;17.13;;;11.37;;
52320;SDS011;38261;54.090;13.382;2023-04-24T01:48:22;17.27;;;11.00;;
52320;SDS011;38261;54.090;13.382;2023-04-24T01:49:44;17.03;;;11.20;;
52320;SDS011;38261;54.090;13.382;2023-04-24T01:51:09;19.17;;;11.00;;
52320;SDS011;38261;54.090;13.382;2023-04-24T01:52:31;17.30;;;11.30;;
52320;SDS011;38261;54.090;13.382;2023-04-24T01:53:54;21.00;;;11.93;;
52320;SDS011;38261;54.090;13.382;2023-04-24T01:55:17;19.33;;;11.70;;
52320;SDS011;38261;54.090;13.382;2023-04-24T01:56:42;18.23;;;12.60;;
52320;SDS011;38261;54.090;13.382;2023-04-24T01:58:05;17.00;;;10.83;;
52320;SDS011;38261;54.090;13.382;2023-04-24T01:59:27;16.07;;;10.57;;
52320;SDS011;38261;54.090;13.382;2023-04-24T02:00:50;15.53;;;10.77;;
52320;SDS011;38261;54.090;13.382;2023-04-24T02:02:12;14.80;;;11.30;;
52320;SDS011;38261;54.090;13.382;2023-04-24T02:03:34;17.50;;;10.87;;
52320;SDS011;38261;54.090;13.382;2023-04-24T02:04:56;27.20;;;12.10;;
52320;SDS011;38261;54.090;13.382;2023-04-24T02:06:19;20.27;;;11.57;;
52320;SDS011;38261;54.090;13.382;2023-04-24T02:07:41;18.90;;;11.17;;
52320;SDS011;38261;54.090;13.382;2023-04-24T02:09:03;18.40;;;11.73;;
52320;SDS011;38261;54.090;13.382;2023-04-24T02:10:25;19.67;;;11.33;;
52320;SDS011;38261;54.090;13.382;2023-04-24T02:11:47;19.10;;;12.07;;
52320;SDS011;38261;54.090;13.382;2023-04-24T02:13:09;18.33;;;11.30;;
52320;SDS011;38261;54.090;13.382;2023-04-24T02:14:31;18.30;;;10.87;;
52320;SDS011;38261;54.090;13.382;2023-04-24T02:15:53;18.27;;;11.70;;
52320;SDS011;38261;54.090;13.382;2023-04-24T02:17:16;15.50;;;10.77;;
52320;SDS011;38261;54.090;13.382;2023-04-24T02:18:38;16.77;;;11.43;;
52320;SDS011;38261;54.090;13.382;2023-04-24T02:20:00;23.33;;;13.27;;
52320;SDS011;38261;54.090;13.382;2023-04-24T02:21:22;20.63;;;11.07;;
52320;SDS011;38261;54.090;13.382;2023-04-24T02:22:44;20.07;;;12.40;;
52320;SDS011;38261;54.090;13.382;2023-04-24T02:24:06;17.43;;;12.03;;
52320;SDS011;38261;54.090;13.382;2023-04-24T02:25:28;22.03;;;12.30;;
52320;SDS011;38261;54.090;13.382;2023-04-24T02:26:50;24.20;;;13.10;;
52320;SDS011;38261;54.090;13.382;2023-04-24T02:28:13;20.93;;;12.93;;
52320;SDS011;38261;54.090;13.382;2023-04-24T02:29:35;20.83;;;12.50;;
52320;SDS011;38261;54.090;13.382;2023-04-24T02:30:57;17.53;;;12.20;;
52320;SDS011;38261;54.090;13.382;2023-04-24T02:32:19;20.13;;;12.60;;
52320;SDS011;38261;54.090;13.382;2023-04-24T02:33:42;23.93;;;13.00;;
52320;SDS011;38261;54.090;13.382;2023-04-24T02:35:04;19.33;;;12.60;;
52320;SDS011;38261;54.090;13.382;2023-04-24T02:36:26;23.30;;;12.73;;
52320;SDS011;38261;54.090;13.382;2023-04-24T02:37:48;17.80;;;12.93;;
52320;SDS011;38261;54.090;13.382;2023-04-24T02:39:10;19.93;;;13.10;;
52320;SDS011;38261;54.090;13.382;2023-04-24T02:40:32;20.93;;;13.20;;
52320;SDS011;38261;54.090;13.382;2023-04-24T02:41:54;17.80;;;11.60;;
52320;SDS011;38261;54.090;13.382;2023-04-24T02:43:16;19.93;;;12.27;;
52320;SDS011;38261;54.090;13.382;2023-04-24T02:44:38;18.63;;;12.00;;
52320;SDS011;38261;54.090;13.382;2023-04-24T02:46:01;22.10;;;13.60;;
52320;SDS011;38261;54.090;13.382;2023-04-24T02:47:23;18.00;;;12.73;;
52320;SDS011;38261;54.090;13.382;2023-04-24T02:48:45;20.63;;;12.07;;
52320;SDS011;38261;54.090;13.382;2023-04-24T02:50:07;22.33;;;13.40;;
52320;SDS011;38261;54.090;13.382;2023-04-24T02:51:29;21.30;;;12.80;;
52320;SDS011;38261;54.090;13.382;2023-04-24T02:52:52;19.10;;;12.17;;
52320;SDS011;38261;54.090;13.382;2023-04-24T02:54:14;26.83;;;12.40;;
52320;SDS011;38261;54.090;13.382;2023-04-24T02:55:36;21.37;;;12.77;;
52320;SDS011;38261;54.090;13.382;2023-04-24T02:56:58;21.13;;;13.13;;
52320;SDS011;38261;54.090;13.382;2023-04-24T02:58:20;18.77;;;12.00;;
52320;SDS011;38261;54.090;13.382;2023-04-24T02:59:42;21.43;;;13.53;;
52320;SDS011;38261;54.090;13.382;2023-04-24T03:01:05;19.30;;;12.23;;
52320;SDS011;38261;54.090;13.382;2023-04-24T03:02:27;18.57;;;12.77;;
52320;SDS011;38261;54.090;13.382;2023-04-24T03:03:49;20.77;;;13.43;;
52320;SDS011;38261;54.090;13.382;2023-04-24T03:05:12;21.17;;;12.70;;
52320;SDS011;38261;54.090;13.382;2023-04-24T03:06:34;19.50;;;12.40;;
52320;SDS011;38261;54.090;13.382;2023-04-24T03:07:56;20.70;;;12.80;;
52320;SDS011;38261;54.090;13.382;2023-04-24T03:09:19;23.50;;;12.00;;
52320;SDS011;38261;54.090;13.382;2023-04-24T03:10:41;20.07;;;12.83;;
52320;SDS011;38261;54.090;13.382;2023-04-24T03:12:03;23.10;;;12.67;;
52320;SDS011;38261;54.090;13.382;2023-04-24T03:13:25;18.10;;;12.30;;
52320;SDS011;38261;54.090;13.382;2023-04-24T03:14:47;19.70;;;13.03;;
52320;SDS011;38261;54.090;13.382;2023-04-24T03:16:09;17.43;;;11.67;;
52320;SDS011;38261;54.090;13.382;2023-04-24T03:17:31;18.63;;;11.70;;
52320;SDS011;38261;54.090;13.382;2023-04-24T03:18:54;20.10;;;12.60;;
52320;SDS011;38261;54.090;13.382;2023-04-24T03:20:16;19.03;;;11.53;;
52320;SDS011;38261;54.090;13.382;2023-04-24T03:21:38;19.37;;;12.43;;
52320;SDS011;38261;54.090;13.382;2023-04-24T03:23:02;18.87;;;11.10;;
52320;SDS011;38261;54.090;13.382;2023-04-24T03:24:24;21.13;;;12.60;;
52320;SDS011;38261;54.090;13.382;2023-04-24T03:25:49;19.43;;;12.50;;
52320;SDS011;38261;54.090;13.382;2023-04-24T03:27:11;16.33;;;12.03;;
52320;SDS011;38261;54.090;13.382;2023-04-24T03:28:33;19.90;;;11.87;;
52320;SDS011;38261;54.090;13.382;2023-04-24T03:29:55;23.37;;;12.70;;
52320;SDS011;38261;54.090;13.382;2023-04-24T03:31:17;18.10;;;12.10;;
52320;SDS011;38261;54.090;13.382;2023-04-24T03:32:40;20.23;;;11.70;;
52320;SDS011;38261;54.090;13.382;2023-04-24T03:34:02;22.00;;;12.90;;
52320;SDS011;38261;54.090;13.382;2023-04-24T03:35:24;20.27;;;12.20;;
52320;SDS011;38261;54.090;13.382;2023-04-24T03:36:46;20.07;;;12.33;;
52320;SDS011;38261;54.090;13.382;2023-04-24T03:38:11;22.20;;;13.30;;
52320;SDS011;38261;54.090;13.382;2023-04-24T03:39:33;23.27;;;14.23;;
52320;SDS011;38261;54.090;13.382;2023-04-24T03:40:55;23.00;;;13.00;;
52320;SDS011;38261;54.090;13.382;2023-04-24T03:42:17;20.83;;;12.93;;
52320;SDS011;38261;54.090;13.382;2023-04-24T03:43:39;19.73;;;12.93;;
52320;SDS011;38261;54.090;13.382;2023-04-24T03:45:02;26.33;;;14.10;;
52320;SDS011;38261;54.090;13.382;2023-04-24T03:46:24;22.40;;;13.23;;
52320;SDS011;38261;54.090;13.382;2023-04-24T03:47:46;20.63;;;14.00;;
52320;SDS011;38261;54.090;13.382;2023-04-24T03:49:08;22.70;;;13.33;;
52320;SDS011;38261;54.090;13.382;2023-04-24T03:51:34;20.87;;;13.27;;
52320;SDS011;38261;54.090;13.382;2023-04-24T03:52:56;21.17;;;13.63;;
52320;SDS011;38261;54.090;13.382;2023-04-24T03:54:19;24.00;;;13.20;;
52320;SDS011;38261;54.090;13.382;2023-04-24T03:55:41;19.60;;;11.90;;
52320;SDS011;38261;54.090;13.382;2023-04-24T03:57:03;26.10;;;13.70;;
52320;SDS011;38261;54.090;13.382;2023-04-24T03:58:26;19.67;;;12.20;;
52320;SDS011;38261;54.090;13.382;2023-04-24T03:59:48;17.20;;;10.93;;
52320;SDS011;38261;54.090;13.382;2023-04-24T04:01:10;20.93;;;11.80;;
52320;SDS011;38261;54.090;13.382;2023-04-24T04:02:33;16.37;;;10.93;;
52320;SDS011;38261;54.090;13.382;2023-04-24T04:03:56;18.13;;;10.87;;
52320;SDS011;38261;54.090;13.382;2023-04-24T04:05:18;15.57;;;10.20;;
52320;SDS011;38261;54.090;13.382;2023-04-24T04:06:41;16.97;;;10.90;;
52320;SDS011;38261;54.090;13.382;2023-04-24T04:08:03;17.13;;;11.63;;
52320;SDS011;38261;54.090;13.382;2023-04-24T04:09:25;15.03;;;9.10;;
52320;SDS011;38261;54.090;13.382;2023-04-24T04:10:48;14.57;;;9.70;;
52320;SDS011;38261;54.090;13.382;2023-04-24T04:12:10;12.20;;;8.80;;
52320;SDS011;38261;54.090;13.382;2023-04-24T04:13:32;14.67;;;9.93;;
52320;SDS011;38261;54.090;13.382;2023-04-24T04:14:54;15.07;;;10.20;;
52320;SDS011;38261;54.090;13.382;2023-04-24T04:16:16;14.90;;;9.53;;
52320;SDS011;38261;54.090;13.382;2023-04-24T04:17:39;17.60;;;9.20;;
52320;SDS011;38261;54.090;13.382;2023-04-24T04:19:01;13.47;;;9.30;;
52320;SDS011;38261;54.090;13.382;2023-04-24T04:20:24;20.67;;;9.53;;
52320;SDS011;38261;54.090;13.382;2023-04-24T04:21:46;12.80;;;8.77;;
52320;SDS011;38261;54.090;13.382;2023-04-24T04:23:13;12.60;;;8.20;;
52320;SDS011;38261;54.090;13.382;2023-04-24T04:24:35;12.27;;;8.00;;
52320;SDS011;38261;54.090;13.382;2023-04-24T04:25:59;11.53;;;7.70;;
52320;SDS011;38261;54.090;13.382;2023-04-24T04:27:21;9.30;;;6.30;;
52320;SDS011;38261;54.090;13.382;2023-04-24T04:28:43;11.97;;;7.23;;
52320;SDS011;38261;54.090;13.382;2023-04-24T04:30:06;9.57;;;6.50;;
52320;SDS011;38261;54.090;13.382;2023-04-24T04:31:29;7.90;;;6.10;;
52320;SDS011;38261;54.090;13.382;2023-04-24T04:32:52;15.00;;;7.97;;
52320;SDS011;38261;54.090;13.382;2023-04-24T04:34:14;8.63;;;5.73;;
52320;SDS011;38261;54.090;13.382;2023-04-24T04:35:36;9.83;;;6.50;;
52320;SDS011;38261;54.090;13.382;2023-04-24T04:36:58;8.70;;;6.53;;
52320;SDS011;38261;54.090;13.382;2023-04-24T04:38:23;10.77;;;7.13;;
52320;SDS011;38261;54.090;13.382;2023-04-24T04:39:45;9.43;;;6.40;;
52320;SDS011;38261;54.090;13.382;2023-04-24T04:41:07;7.87;;;6.40;;
52320;SDS011;38261;54.090;13.382;2023-04-24T04:42:29;9.33;;;6.73;;
52320;SDS011;38261;54.090;13.382;2023-04-24T04:43:51;16.13;;;7.90;;
52320;SDS011;38261;54.090;13.382;2023-04-24T04:45:14;11.70;;;8.30;;
52320;SDS011;38261;54.090;13.382;2023-04-24T04:46:38;11.10;;;8.73;;
52320;SDS011;38261;54.090;13.382;2023-04-24T04:48:00;13.80;;;7.93;;
52320;SDS011;38261;54.090;13.382;2023-04-24T04:49:23;13.07;;;8.27;;
52320;SDS011;38261;54.090;13.382;2023-04-24T04:50:45;13.13;;;8.23;;
52320;SDS011;38261;54.090;13.382;2023-04-24T04:52:08;14.60;;;7.40;;
52320;SDS011;38261;54.090;13.382;2023-04-24T04:53:30;12.93;;;8.47;;
52320;SDS011;38261;54.090;13.382;2023-04-24T04:54:52;10.50;;;7.57;;
52320;SDS011;38261;54.090;13.382;2023-04-24T04:56:14;11.67;;;8.43;;
52320;SDS011;38261;54.090;13.382;2023-04-24T04:57:36;12.50;;;7.67;;
52320;SDS011;38261;54.090;13.382;2023-04-24T04:58:58;13.57;;;9.33;;
52320;SDS011;38261;54.090;13.382;2023-04-24T05:00:20;11.90;;;8.03;;
52320;SDS011;38261;54.090;13.382;2023-04-24T05:01:43;12.27;;;8.40;;
52320;SDS011;38261;54.090;13.382;2023-04-24T05:03:05;10.50;;;7.73;;
52320;SDS011;38261;54.090;13.382;2023-04-24T05:04:42;10.83;;;7.90;;
52320;SDS011;38261;54.090;13.382;2023-04-24T05:06:04;13.60;;;8.10;;
52320;SDS011;38261;54.090;13.382;2023-04-24T05:07:27;12.30;;;7.70;;
52320;SDS011;38261;54.090;13.382;2023-04-24T05:08:49;14.07;;;8.43;;
52320;SDS011;38261;54.090;13.382;2023-04-24T05:10:12;11.77;;;7.37;;
52320;SDS011;38261;54.090;13.382;2023-04-24T05:11:34;10.43;;;7.20;;
52320;SDS011;38261;54.090;13.382;2023-04-24T05:12:56;12.40;;;8.17;;
52320;SDS011;38261;54.090;13.382;2023-04-24T05:14:18;17.03;;;6.47;;
52320;SDS011;38261;54.090;13.382;2023-04-24T05:15:40;9.63;;;6.53;;
52320;SDS011;38261;54.090;13.382;2023-04-24T05:17:02;12.97;;;6.43;;
52320;SDS011;38261;54.090;13.382;2023-04-24T05:18:25;8.47;;;6.30;;
52320;SDS011;38261;54.090;13.382;2023-04-24T05:19:47;6.70;;;5.60;;
52320;SDS011;38261;54.090;13.382;2023-04-24T05:21:09;7.90;;;5.93;;
52320;SDS011;38261;54.090;13.382;2023-04-24T05:22:31;10.93;;;7.07;;
52320;SDS011;38261;54.090;13.382;2023-04-24T05:23:53;8.47;;;6.83;;
52320;SDS011;38261;54.090;13.382;2023-04-24T05:25:16;11.03;;;6.43;;
52320;SDS011;38261;54.090;13.382;2023-04-24T05:26:38;9.10;;;5.37;;
52320;SDS011;38261;54.090;13.382;2023-04-24T05:28:00;7.50;;;5.93;;
52320;SDS011;38261;54.090;13.382;2023-04-24T05:29:22;8.93;;;6.03;;
52320;SDS011;38261;54.090;13.382;2023-04-24T05:30:44;7.90;;;5.57;;
52320;SDS011;38261;54.090;13.382;2023-04-24T05:32:06;7.53;;;5.23;;
52320;SDS011;38261;54.090;13.382;2023-04-24T05:33:28;10.50;;;6.37;;
52320;SDS011;38261;54.090;13.382;2023-04-24T05:34:51;8.47;;;5.90;;
52320;SDS011;38261;54.090;13.382;2023-04-24T05:36:13;13.90;;;6.30;;
52320;SDS011;38261;54.090;13.382;2023-04-24T05:37:35;7.57;;;5.83;;
52320;SDS011;38261;54.090;13.382;2023-04-24T05:38:58;12.70;;;6.57;;
52320;SDS011;38261;54.090;13.382;2023-04-24T05:40:20;9.77;;;5.80;;
52320;SDS011;38261;54.090;13.382;2023-04-24T05:41:42;10.93;;;6.77;;
52320;SDS011;38261;54.090;13.382;2023-04-24T05:43:04;8.40;;;6.30;;
52320;SDS011;38261;54.090;13.382;2023-04-24T05:44:27;9.27;;;6.20;;
52320;SDS011;38261;54.090;13.382;2023-04-24T05:45:49;9.17;;;6.27;;
52320;SDS011;38261;54.090;13.382;2023-04-24T05:47:11;8.73;;;5.90;;
52320;SDS011;38261;54.090;13.382;2023-04-24T05:48:33;6.93;;;5.47;;
52320;SDS011;38261;54.090;13.382;2023-04-24T05:49:55;9.80;;;6.53;;
52320;SDS011;38261;54.090;13.382;2023-04-24T05:51:17;9.50;;;6.73;;
52320;SDS011;38261;54.090;13.382;2023-04-24T05:52:39;11.23;;;6.17;;
52320;SDS011;38261;54.090;13.382;2023-04-24T05:54:01;8.70;;;6.10;;
52320;SDS011;38261;54.090;13.382;2023-04-24T05:55:24;12.27;;;6.67;;
52320;SDS011;38261;54.090;13.382;2023-04-24T05:56:47;9.83;;;6.87;;
52320;SDS011;38261;54.090;13.382;2023-04-24T05:58:10;10.20;;;6.60;;
52320;SDS011;38261;54.090;13.382;2023-04-24T05:59:35;9.00;;;6.47;;
52320;SDS011;38261;54.090;13.382;2023-04-24T06:00:58;10.17;;;6.43;;
52320;SDS011;38261;54.090;13.382;2023-04-24T06:02:22;8.30;;;5.93;;
52320;SDS011;38261;54.090;13.382;2023-04-24T06:03:45;10.33;;;6.50;;
52320;SDS011;38261;54.090;13.382;2023-04-24T06:05:07;12.63;;;6.60;;
52320;SDS011;38261;54.090;13.382;2023-04-24T06:06:30;10.77;;;6.23;;
52320;SDS011;38261;54.090;13.382;2023-04-24T06:07:52;12.13;;;7.17;;
52320;SDS011;38261;54.090;13.382;2023-04-24T06:09:14;7.90;;;6.13;;
52320;SDS011;38261;54.090;13.382;2023-04-24T06:10:38;10.70;;;6.70;;
52320;SDS011;38261;54.090;13.382;2023-04-24T06:12:00;8.63;;;7.00;;
52320;SDS011;38261;54.090;13.382;2023-04-24T06:13:22;11.80;;;7.13;;
52320;SDS011;38261;54.090;13.382;2023-04-24T06:14:44;11.70;;;7.57;;
52320;SDS011;38261;54.090;13.382;2023-04-24T06:16:06;8.17;;;6.23;;
52320;SDS011;38261;54.090;13.382;2023-04-24T06:17:29;9.43;;;6.50;;
52320;SDS011;38261;54.090;13.382;2023-04-24T06:18:52;8.70;;;7.23;;
52320;SDS011;38261;54.090;13.382;2023-04-24T06:20:14;9.67;;;7.50;;
52320;SDS011;38261;54.090;13.382;2023-04-24T06:21:36;10.13;;;6.93;;
52320;SDS011;38261;54.090;13.382;2023-04-24T06:22:58;10.37;;;6.67;;
52320;SDS011;38261;54.090;13.382;2023-04-24T06:24:20;10.40;;;6.70;;
52320;SDS011;38261;54.090;13.382;2023-04-24T06:25:42;9.17;;;6.60;;
52320;SDS011;38261;54.090;13.382;2023-04-24T06:27:05;8.50;;;6.27;;
52320;SDS011;38261;54.090;13.382;2023-04-24T06:28:27;8.70;;;6.67;;
52320;SDS011;38261;54.090;13.382;2023-04-24T06:29:49;11.67;;;6.57;;
52320;SDS011;38261;54.090;13.382;2023-04-24T06:31:15;10.20;;;6.93;;
52320;SDS011;38261;54.090;13.382;2023-04-24T06:32:38;12.70;;;7.10;;
52320;SDS011;38261;54.090;13.382;2023-04-24T06:34:00;10.20;;;7.33;;
52320;SDS011;38261;54.090;13.382;2023-04-24T06:35:23;11.00;;;7.60;;
52320;SDS011;38261;54.090;13.382;2023-04-24T06:36:46;9.67;;;7.13;;
52320;SDS011;38261;54.090;13.382;2023-04-24T06:38:08;11.53;;;6.73;;
52320;SDS011;38261;54.090;13.382;2023-04-24T06:39:31;8.63;;;7.23;;
52320;SDS011;38261;54.090;13.382;2023-04-24T06:40:53;8.97;;;7.13;;
52320;SDS011;38261;54.090;13.382;2023-04-24T06:42:15;8.87;;;7.20;;
52320;SDS011;38261;54.090;13.382;2023-04-24T06:43:37;8.97;;;7.00;;
52320;SDS011;38261;54.090;13.382;2023-04-24T06:44:59;12.83;;;7.87;;
52320;SDS011;38261;54.090;13.382;2023-04-24T06:46:21;16.17;;;6.70;;
52320;SDS011;38261;54.090;13.382;2023-04-24T06:47:47;12.17;;;7.80;;
52320;SDS011;38261;54.090;13.382;2023-04-24T06:49:09;9.27;;;6.80;;
52320;SDS011;38261;54.090;13.382;2023-04-24T06:50:31;9.50;;;6.90;;
52320;SDS011;38261;54.090;13.382;2023-04-24T06:51:54;12.03;;;8.17;;
52320;SDS011;38261;54.090;13.382;2023-04-24T06:53:16;9.47;;;7.53;;
52320;SDS011;38261;54.090;13.382;2023-04-24T06:54:38;10.13;;;7.40;;
52320;SDS011;38261;54.090;13.382;2023-04-24T06:56:00;9.30;;;7.23;;
52320;SDS011;38261;54.090;13.382;2023-04-24T06:57:22;9.60;;;7.50;;
52320;SDS011;38261;54.090;13.382;2023-04-24T06:58:44;11.03;;;7.03;;
52320;SDS011;38261;54.090;13.382;2023-04-24T07:00:07;12.07;;;8.33;;
52320;SDS011;38261;54.090;13.382;2023-04-24T07:01:30;12.47;;;8.73;;
52320;SDS011;38261;54.090;13.382;2023-04-24T07:02:53;10.40;;;8.07;;
52320;SDS011;38261;54.090;13.382;2023-04-24T07:04:15;12.50;;;7.40;;
52320;SDS011;38261;54.090;13.382;2023-04-24T07:05:37;9.50;;;7.57;;
52320;SDS011;38261;54.090;13.382;2023-04-24T07:06:59;11.27;;;8.43;;
52320;SDS011;38261;54.090;13.382;2023-04-24T07:08:22;10.90;;;8.67;;
52320;SDS011;38261;54.090;13.382;2023-04-24T07:09:44;13.37;;;8.00;;
52320;SDS011;38261;54.090;13.382;2023-04-24T07:11:07;11.90;;;8.27;;
52320;SDS011;38261;54.090;13.382;2023-04-24T07:12:29;11.50;;;8.17;;
52320;SDS011;38261;54.090;13.382;2023-04-24T07:13:51;11.67;;;8.17;;
52320;SDS011;38261;54.090;13.382;2023-04-24T07:15:13;10.30;;;8.50;;
52320;SDS011;38261;54.090;13.382;2023-04-24T07:16:35;11.57;;;8.47;;
52320;SDS011;38261;54.090;13.382;2023-04-24T07:17:58;14.27;;;9.10;;
52320;SDS011;38261;54.090;13.382;2023-04-24T07:19:20;11.10;;;7.80;;
52320;SDS011;38261;54.090;13.382;2023-04-24T07:20:42;10.20;;;8.00;;
52320;SDS011;38261;54.090;13.382;2023-04-24T07:22:04;10.47;;;7.87;;
52320;SDS011;38261;54.090;13.382;2023-04-24T07:23:27;8.57;;;7.67;;
52320;SDS011;38261;54.090;13.382;2023-04-24T07:24:49;10.13;;;7.70;;
52320;SDS011;38261;54.090;13.382;2023-04-24T07:26:11;11.87;;;9.00;;
52320;SDS011;38261;54.090;13.382;2023-04-24T07:27:34;12.83;;;8.00;;
52320;SDS011;38261;54.090;13.382;2023-04-24T07:28:57;9.73;;;7.60;;
52320;SDS011;38261;54.090;13.382;2023-04-24T07:30:19;7.97;;;6.40;;
52320;SDS011;38261;54.090;13.382;2023-04-24T07:31:41;8.40;;;7.10;;
52320;SDS011;38261;54.090;13.382;2023-04-24T07:33:03;7.97;;;6.50;;
52320;SDS011;38261;54.090;13.382;2023-04-24T07:34:26;7.93;;;6.40;;
52320;SDS011;38261;54.090;13.382;2023-04-24T07:35:48;9.40;;;6.40;;
52320;SDS011;38261;54.090;13.382;2023-04-24T07:37:10;6.90;;;5.83;;
52320;SDS011;38261;54.090;13.382;2023-04-24T07:38:32;6.83;;;6.03;;
52320;SDS011;38261;54.090;13.382;2023-04-24T07:39:54;9.33;;;6.37;;
52320;SDS011;38261;54.090;13.382;2023-04-24T07:41:17;5.97;;;5.30;;
52320;SDS011;38261;54.090;13.382;2023-04-24T07:42:39;8.53;;;6.70;;
52320;SDS011;38261;54.090;13.382;2023-04-24T07:44:02;8.10;;;6.03;;
52320;SDS011;38261;54.090;13.382;2023-04-24T07:45:24;6.13;;;4.97;;
52320;SDS011;38261;54.090;13.382;2023-04-24T07:46:47;7.80;;;5.93;;
52320;SDS011;38261;54.090;13.382;2023-04-24T07:48:09;7.67;;;5.23;;
52320;SDS011;38261;54.090;13.382;2023-04-24T07:49:32;5.50;;;4.90;;
52320;SDS011;38261;54.090;13.382;2023-04-24T07:50:56;5.77;;;5.17;;
52320;SDS011;38261;54.090;13.382;2023-04-24T07:52:18;5.60;;;5.07;;
52320;SDS011;38261;54.090;13.382;2023-04-24T07:53:40;6.83;;;5.60;;
52320;SDS011;38261;54.090;13.382;2023-04-24T07:55:03;6.93;;;5.30;;
52320;SDS011;38261;54.090;13.382;2023-04-24T07:56:26;5.77;;;5.00;;
52320;SDS011;38261;54.090;13.382;2023-04-24T07:57:48;5.63;;;5.03;;
52320;SDS011;38261;54.090;13.382;2023-04-24T07:59:10;5.40;;;4.67;;
52320;SDS011;38261;54.090;13.382;2023-04-24T08:00:33;7.67;;;5.10;;
52320;SDS011;38261;54.090;13.382;2023-04-24T08:01:55;7.00;;;5.90;;